Terminal Aerodrome Forecast
Issued by NWS North Platte, NE

Home | Current Version | Previous Version | Graphics & Text | Print | Product List | Glossary On
Versions: 1 2 3 4 5 6 7 8 9 10 11 12 13 14 15 16 17 18
000
FTUS43 KLBF 200414 AAC
TAFVTN
TAF AMD
KVTN 200414Z 2004/2024 03011KT P6SM FEW009 SCT028 OVC035
     FM200600 02007KT 5SM -RA OVC008
     FM201000 35009KT 3SM -SN OVC008
     FM201200 34011KT 4SM -SNRA OVC008
     FM201400 34013G19KT P6SM -RA OVC008
     FM201700 35013G19KT P6SM -RA OVC010
     FM201800 35013G19KT P6SM OVC010=

USA.gov is the U.S. government's official web portal to all federal, state and local government web resources and services.